createdAt,value
2022-12-20T00:01:28.168Z,4.90
2022-12-20T00:03:56.708Z,4.97
2022-12-20T00:06:24.824Z,5.47
2022-12-20T00:09:00.304Z,6.93
2022-12-20T00:11:28.069Z,6.23
2022-12-20T00:13:54.872Z,4.27
2022-12-20T00:16:24.325Z,6.47
2022-12-20T00:18:59.441Z,7.53
2022-12-20T00:21:27.558Z,5.70
2022-12-20T00:23:55.052Z,4.80
2022-12-20T00:26:25.600Z,7.97
2022-12-20T00:28:52.860Z,5.57
2022-12-20T00:31:20.805Z,4.33
2022-12-20T00:33:50.119Z,4.13
2022-12-20T00:36:18.247Z,6.20
2022-12-20T00:38:49.404Z,3.93
2022-12-20T00:41:19.057Z,4.27
2022-12-20T00:43:45.933Z,5.70
2022-12-20T00:46:14.459Z,3.57
2022-12-20T00:48:41.476Z,5.30
2022-12-20T00:51:13.512Z,5.17
2022-12-20T00:53:41.107Z,4.63
2022-12-20T00:56:08.744Z,6.27
2022-12-20T00:58:38.134Z,4.97
2022-12-20T01:01:14.400Z,7.07
2022-12-20T01:03:41.231Z,6.57
2022-12-20T01:06:08.181Z,5.53
2022-12-20T01:08:34.943Z,6.53
2022-12-20T01:11:04.535Z,5.73
2022-12-20T01:13:31.880Z,7.27
2022-12-20T01:16:05.226Z,4.13
2022-12-20T01:18:33.015Z,6.73
2022-12-20T01:21:05.742Z,5.20
2022-12-20T01:23:32.968Z,6.40
2022-12-20T01:26:04.975Z,4.97
2022-12-20T01:28:32.748Z,4.80
2022-12-20T01:31:00.043Z,3.87
2022-12-20T01:33:27.066Z,4.67
2022-12-20T01:36:02.113Z,5.77
2022-12-20T01:38:29.261Z,8.53
2022-12-20T01:40:57.476Z,4.83
2022-12-20T01:43:26.084Z,5.50
2022-12-20T01:45:52.933Z,5.17
2022-12-20T01:48:25.631Z,5.40
2022-12-20T01:50:53.272Z,5.47
2022-12-20T01:53:23.351Z,3.97
2022-12-20T01:55:50.154Z,5.30
2022-12-20T01:58:18.852Z,4.73
2022-12-20T02:00:46.155Z,5.63
2022-12-20T02:03:14.323Z,3.67
2022-12-20T02:05:48.150Z,7.27
2022-12-20T02:08:18.830Z,6.00
2022-12-20T02:11:12.033Z,5.60
2022-12-20T02:13:55.680Z,9.67
2022-12-20T02:16:27.878Z,7.43
2022-12-20T02:19:04.515Z,5.37
2022-12-20T02:21:39.230Z,5.30
2022-12-20T02:24:11.628Z,6.33
2022-12-20T02:27:04.485Z,6.67
2022-12-20T02:29:43.382Z,5.07
2022-12-20T02:32:22.424Z,5.37
2022-12-20T02:34:50.655Z,6.40
2022-12-20T02:37:17.337Z,8.60
2022-12-20T02:39:45.724Z,7.70
2022-12-20T02:42:21.448Z,5.93
2022-12-20T02:45:18.026Z,6.20
2022-12-20T02:47:49.215Z,9.70
2022-12-20T02:50:31.935Z,6.43
2022-12-20T02:53:00.132Z,6.27
2022-12-20T02:55:41.892Z,6.93
2022-12-20T02:58:42.726Z,6.17
2022-12-20T03:01:16.349Z,6.77
2022-12-20T03:03:43.893Z,7.50
2022-12-20T03:06:10.768Z,8.67
2022-12-20T03:08:37.443Z,6.20
2022-12-20T03:11:04.212Z,12.33
2022-12-20T03:13:30.932Z,8.37
2022-12-20T03:15:57.741Z,8.43
2022-12-20T03:18:24.437Z,13.07
2022-12-20T03:20:51.157Z,11.13
2022-12-20T03:23:17.894Z,7.77
2022-12-20T03:25:44.568Z,7.67
2022-12-20T03:28:11.276Z,9.90
2022-12-20T03:30:38.166Z,10.50
2022-12-20T03:33:04.969Z,10.70
2022-12-20T03:35:31.683Z,8.57
2022-12-20T03:37:58.528Z,7.40
2022-12-20T03:40:25.185Z,9.27
2022-12-20T03:42:51.912Z,6.23
2022-12-20T03:45:18.645Z,7.23
2022-12-20T03:47:45.342Z,7.40
2022-12-20T03:50:12.469Z,11.50
2022-12-20T03:52:39.349Z,9.67
2022-12-20T03:55:06.879Z,8.40
2022-12-20T03:57:33.571Z,6.27
2022-12-20T04:00:00.252Z,8.00
2022-12-20T04:02:27.176Z,7.67
2022-12-20T04:04:54.023Z,9.83
2022-12-20T04:07:20.694Z,6.30
2022-12-20T04:09:47.412Z,10.40
2022-12-20T04:12:14.146Z,9.23
2022-12-20T04:14:40.919Z,11.80
2022-12-20T04:17:07.684Z,7.17
2022-12-20T04:19:34.414Z,6.33
2022-12-20T04:22:05.375Z,10.13
2022-12-20T04:24:32.881Z,6.63
2022-12-20T04:26:59.554Z,7.93
2022-12-20T04:29:26.288Z,8.47
2022-12-20T04:31:52.988Z,7.87
2022-12-20T04:34:19.719Z,6.33
2022-12-20T04:36:46.411Z,9.70
2022-12-20T04:39:13.085Z,7.67
2022-12-20T04:41:39.814Z,6.60
2022-12-20T04:44:06.629Z,8.13
2022-12-20T04:46:33.519Z,6.17
2022-12-20T04:49:00.405Z,8.53
2022-12-20T04:51:28.204Z,6.17
2022-12-20T04:53:55.775Z,6.87
2022-12-20T04:56:24.939Z,6.80
2022-12-20T04:58:53.825Z,7.43
2022-12-20T05:01:21.945Z,6.77
2022-12-20T05:03:49.509Z,6.40
2022-12-20T05:06:17.285Z,7.90
2022-12-20T05:08:44.213Z,5.07
2022-12-20T05:11:11.597Z,6.40
2022-12-20T05:13:38.479Z,6.97
2022-12-20T05:16:05.860Z,5.97
2022-12-20T05:18:32.832Z,5.73
2022-12-20T05:21:19.916Z,5.77
2022-12-20T05:24:05.950Z,6.40
2022-12-20T05:26:35.652Z,5.50
2022-12-20T05:29:02.763Z,6.47
2022-12-20T05:31:29.495Z,5.83
2022-12-20T05:33:56.447Z,6.73
2022-12-20T05:36:23.167Z,5.27
2022-12-20T05:38:50.065Z,4.90
2022-12-20T05:41:16.729Z,6.30
2022-12-20T05:43:43.401Z,6.80
2022-12-20T05:46:10.769Z,7.07
2022-12-20T05:48:37.901Z,5.43
2022-12-20T05:51:04.878Z,5.50
2022-12-20T05:53:31.805Z,8.53
2022-12-20T05:55:59.536Z,5.37
2022-12-20T05:58:26.298Z,6.80
2022-12-20T06:00:53.057Z,8.40
2022-12-20T06:03:19.992Z,7.20
2022-12-20T06:05:46.911Z,6.10
2022-12-20T06:08:14.202Z,8.17
2022-12-20T06:10:42.048Z,6.20
2022-12-20T06:13:10.098Z,9.00
2022-12-20T06:15:38.118Z,11.03
2022-12-20T06:18:05.956Z,8.00
2022-12-20T06:20:36.587Z,8.53
2022-12-20T06:23:04.270Z,10.57
2022-12-20T06:25:31.505Z,9.93
2022-12-20T06:27:58.442Z,9.77
2022-12-20T06:30:30.294Z,9.40
2022-12-20T06:33:00.543Z,10.10
2022-12-20T06:35:27.457Z,8.93
2022-12-20T06:37:54.232Z,7.40
2022-12-20T06:40:21.021Z,9.48
2022-12-20T06:42:47.692Z,9.48
2022-12-20T06:45:14.343Z,9.70
2022-12-20T06:47:41.063Z,11.17
2022-12-20T06:50:08.513Z,8.87
2022-12-20T06:52:35.370Z,9.87
2022-12-20T06:55:02.034Z,10.90
2022-12-20T06:57:28.747Z,7.47
2022-12-20T06:59:55.415Z,8.27
2022-12-20T07:02:23.543Z,10.77
2022-12-20T07:04:51.967Z,8.63
2022-12-20T07:07:18.658Z,8.47
2022-12-20T07:09:45.494Z,7.50
2022-12-20T07:12:12.315Z,9.70
2022-12-20T07:14:39.036Z,8.93
2022-12-20T07:17:07.526Z,8.60
2022-12-20T07:19:36.444Z,11.17
2022-12-20T07:22:05.474Z,9.10
2022-12-20T07:24:34.266Z,12.40
2022-12-20T07:27:02.060Z,9.27
2022-12-20T07:29:38.697Z,9.40
2022-12-20T07:32:06.105Z,9.47
2022-12-20T07:34:32.882Z,7.63
2022-12-20T07:36:59.609Z,8.73
2022-12-20T07:39:26.460Z,7.20
2022-12-20T07:41:57.991Z,8.73
2022-12-20T07:44:27.936Z,7.33
2022-12-20T07:46:54.619Z,7.77
2022-12-20T07:49:22.119Z,7.33
2022-12-20T07:51:56.113Z,11.30
2022-12-20T07:54:27.352Z,7.83
2022-12-20T07:56:59.469Z,6.47
2022-12-20T07:59:30.377Z,10.37
2022-12-20T08:02:03.932Z,6.13
2022-12-20T08:04:33.219Z,9.87
2022-12-20T08:07:01.370Z,6.93
2022-12-20T08:09:37.444Z,6.67
2022-12-20T08:12:04.476Z,6.10
2022-12-20T08:14:32.018Z,7.53
2022-12-20T08:16:58.727Z,8.27
2022-12-20T08:19:31.850Z,5.97
2022-12-20T08:21:59.063Z,7.77
2022-12-20T08:24:25.848Z,6.70
2022-12-20T08:26:52.512Z,9.67
2022-12-20T08:29:19.275Z,6.63
2022-12-20T08:31:50.035Z,5.70
2022-12-20T08:34:17.469Z,5.30
2022-12-20T08:36:44.252Z,5.23
2022-12-20T08:39:11.631Z,6.03
2022-12-20T08:41:38.585Z,7.03
2022-12-20T08:44:06.396Z,6.00
2022-12-20T08:46:33.277Z,7.77
2022-12-20T08:49:00.087Z,4.63
2022-12-20T08:51:26.845Z,4.30
2022-12-20T08:53:53.615Z,6.50
2022-12-20T08:56:20.355Z,5.10
2022-12-20T08:58:47.184Z,4.53
2022-12-20T09:01:16.707Z,6.00
2022-12-20T09:03:43.774Z,6.00
2022-12-20T09:06:17.330Z,4.97
2022-12-20T09:08:44.264Z,7.37
2022-12-20T09:11:19.148Z,6.00
2022-12-20T09:13:47.877Z,5.60
2022-12-20T09:16:18.206Z,4.97
2022-12-20T09:18:51.023Z,5.17
2022-12-20T09:21:18.890Z,7.23
2022-12-20T09:23:46.091Z,5.77
2022-12-20T09:26:15.003Z,4.73
2022-12-20T09:28:43.140Z,6.10
2022-12-20T09:31:13.450Z,5.00
2022-12-20T09:33:40.642Z,6.73
2022-12-20T09:36:10.570Z,4.70
2022-12-20T09:38:37.209Z,7.20
2022-12-20T09:41:06.791Z,6.60
2022-12-20T09:43:34.425Z,4.57
2022-12-20T09:46:03.094Z,7.63
2022-12-20T09:48:36.926Z,11.23
2022-12-20T09:51:34.425Z,8.07
2022-12-20T09:54:27.059Z,6.20
2022-12-20T09:57:02.632Z,8.00
2022-12-20T09:59:32.936Z,9.20
2022-12-20T10:02:26.567Z,5.50
2022-12-20T10:04:50.012Z,7.63
2022-12-20T10:07:22.989Z,6.73
2022-12-20T10:10:31.378Z,8.80
2022-12-20T10:13:08.870Z,5.70
2022-12-20T10:15:41.223Z,7.53
2022-12-20T10:18:32.866Z,7.50
2022-12-20T10:21:17.799Z,5.67
2022-12-20T10:24:01.502Z,6.43
2022-12-20T10:26:29.127Z,6.43
2022-12-20T10:28:56.093Z,7.63
2022-12-20T10:31:23.488Z,8.40
2022-12-20T10:33:50.302Z,7.63
2022-12-20T10:36:23.287Z,7.57
2022-12-20T10:38:52.490Z,8.10
2022-12-20T10:41:23.360Z,8.97
2022-12-20T10:44:01.033Z,7.33
2022-12-20T10:46:44.854Z,5.30
2022-12-20T10:49:26.816Z,6.27
2022-12-20T10:51:55.533Z,8.23
2022-12-20T10:54:35.441Z,6.50
2022-12-20T10:57:17.073Z,8.07
2022-12-20T10:59:48.792Z,7.37
2022-12-20T11:02:21.445Z,11.53
2022-12-20T11:05:00.930Z,6.33
2022-12-20T11:07:31.169Z,11.33
2022-12-20T11:10:04.085Z,7.47
2022-12-20T11:12:30.928Z,7.73
2022-12-20T11:15:20.580Z,8.30
2022-12-20T11:18:07.103Z,8.07
2022-12-20T11:20:44.691Z,10.60
2022-12-20T11:23:33.167Z,8.13
2022-12-20T11:26:26.273Z,8.60
2022-12-20T11:29:30.994Z,7.83
2022-12-20T11:32:05.259Z,11.90
2022-12-20T11:35:05.870Z,8.17
2022-12-20T11:37:43.055Z,6.50
2022-12-20T11:40:22.924Z,8.33
2022-12-20T11:43:12.746Z,7.50
2022-12-20T11:45:48.626Z,8.33
2022-12-20T11:48:18.135Z,8.50
2022-12-20T11:50:58.665Z,10.00
2022-12-20T11:53:52.631Z,9.63
2022-12-20T11:56:28.080Z,10.63
2022-12-20T11:59:01.883Z,10.63
2022-12-20T12:01:41.003Z,7.50
2022-12-20T12:04:14.184Z,9.50
2022-12-20T12:06:48.363Z,10.90
2022-12-20T12:09:45.977Z,9.07
2022-12-20T12:12:37.219Z,8.47
2022-12-20T12:15:17.326Z,8.63
2022-12-20T12:18:03.144Z,8.53
2022-12-20T12:20:50.771Z,8.53
2022-12-20T12:23:29.577Z,10.07
2022-12-20T12:25:59.268Z,10.23
2022-12-20T12:28:26.037Z,10.83
2022-12-20T12:31:08.592Z,7.77
2022-12-20T12:33:42.109Z,9.87
2022-12-20T12:36:31.342Z,7.47
2022-12-20T12:39:13.391Z,9.07
2022-12-20T12:42:11.445Z,9.77
2022-12-20T12:44:49.333Z,10.90
2022-12-20T12:47:40.345Z,12.50
2022-12-20T12:50:22.879Z,9.20
2022-12-20T12:53:04.520Z,7.77
2022-12-20T12:55:44.126Z,9.77
2022-12-20T12:58:22.912Z,10.73
2022-12-20T13:01:12.017Z,7.80
2022-12-20T13:03:54.419Z,11.47
2022-12-20T13:06:25.266Z,9.40
2022-12-20T13:09:04.016Z,10.90
2022-12-20T13:11:36.657Z,9.53
2022-12-20T13:14:15.480Z,8.90
2022-12-20T13:17:10.962Z,10.70
2022-12-20T13:19:29.100Z,9.53
2022-12-20T13:21:57.713Z,9.77
2022-12-20T13:24:58.458Z,8.63
2022-12-20T13:27:37.324Z,10.97
2022-12-20T13:30:17.308Z,10.20
2022-12-20T13:32:47.197Z,10.40
2022-12-20T13:35:27.118Z,9.73
2022-12-20T13:38:07.118Z,10.57
2022-12-20T13:40:43.744Z,10.03
2022-12-20T13:43:19.469Z,10.03
2022-12-20T13:45:49.746Z,8.90
2022-12-20T13:48:22.921Z,9.80
2022-12-20T13:50:53.077Z,15.30
2022-12-20T13:53:24.215Z,9.87
2022-12-20T13:55:51.472Z,10.80
2022-12-20T13:58:22.559Z,10.73
2022-12-20T14:00:50.754Z,9.70
2022-12-20T14:03:29.625Z,8.97
2022-12-20T14:06:03.322Z,10.87
2022-12-20T14:08:36.208Z,11.07
2022-12-20T14:11:14.327Z,10.67
2022-12-20T14:13:42.223Z,15.20
2022-12-20T14:16:17.741Z,14.43
2022-12-20T14:19:14.914Z,14.93
2022-12-20T14:21:45.066Z,12.10
2022-12-20T14:24:18.631Z,11.33
2022-12-20T14:26:51.508Z,12.27
2022-12-20T14:29:28.525Z,14.23
2022-12-20T14:31:55.634Z,11.93
2022-12-20T14:34:30.081Z,11.13
2022-12-20T14:37:20.880Z,11.23
2022-12-20T14:39:59.263Z,10.90
2022-12-20T14:42:36.050Z,10.77
2022-12-20T14:45:25.762Z,11.47
2022-12-20T14:48:16.280Z,12.20
2022-12-20T14:50:53.274Z,10.63
2022-12-20T14:53:25.297Z,10.53
2022-12-20T14:55:52.791Z,11.63
2022-12-20T14:58:32.266Z,14.50
2022-12-20T15:01:19.777Z,12.90
2022-12-20T15:03:52.598Z,12.03
2022-12-20T15:06:48.155Z,13.27
2022-12-20T15:09:16.542Z,12.07
2022-12-20T15:11:46.072Z,12.43
2022-12-20T15:14:28.595Z,11.07
2022-12-20T15:16:55.350Z,13.13
2022-12-20T15:19:22.107Z,11.37
2022-12-20T15:21:49.146Z,12.53
2022-12-20T15:24:22.595Z,13.47
2022-12-20T15:26:50.086Z,11.03
2022-12-20T15:29:23.646Z,13.43
2022-12-20T15:31:52.080Z,12.43
2022-12-20T15:34:31.087Z,12.60
2022-12-20T15:37:00.158Z,11.53
2022-12-20T15:39:27.698Z,11.47
2022-12-20T15:41:54.840Z,12.40
2022-12-20T15:44:24.209Z,12.87
2022-12-20T15:46:51.840Z,12.73
2022-12-20T15:49:24.081Z,12.07
2022-12-20T15:51:53.133Z,13.47
2022-12-20T15:54:30.309Z,14.77
2022-12-20T15:57:00.357Z,14.70
2022-12-20T16:02:27.261Z,16.83
2022-12-20T16:04:55.211Z,13.93
2022-12-20T16:07:22.845Z,16.10
2022-12-20T16:09:49.897Z,16.43
2022-12-20T16:12:19.949Z,17.67
2022-12-20T16:14:46.798Z,16.47
2022-12-20T16:17:14.409Z,17.50
2022-12-20T16:19:45.859Z,20.00
2022-12-20T16:22:18.124Z,16.97
2022-12-20T16:24:45.634Z,22.57
2022-12-20T16:27:12.544Z,19.47
2022-12-20T16:29:39.325Z,18.17
2022-12-20T16:32:17.182Z,18.13
2022-12-20T16:34:44.335Z,17.17
2022-12-20T16:37:14.241Z,17.83
2022-12-20T16:39:41.766Z,19.93
2022-12-20T16:42:16.266Z,18.30
2022-12-20T16:44:45.587Z,18.93
2022-12-20T16:47:13.886Z,19.73
2022-12-20T16:49:47.243Z,20.07
2022-12-20T16:52:19.233Z,19.70
2022-12-20T16:54:46.135Z,21.47
2022-12-20T16:57:13.064Z,18.80
2022-12-20T16:59:39.803Z,22.50
2022-12-20T17:02:26.417Z,17.43
2022-12-20T17:04:53.508Z,17.67
2022-12-20T17:07:20.652Z,15.83
2022-12-20T17:12:31.572Z,16.53
2022-12-20T17:14:58.424Z,15.40
2022-12-20T17:17:25.353Z,14.83
2022-12-20T17:19:52.233Z,14.50
2022-12-20T17:25:03.828Z,13.37
2022-12-20T17:27:30.545Z,12.30
2022-12-20T17:29:57.347Z,13.83
2022-12-20T17:32:26.038Z,10.87
2022-12-20T17:34:53.729Z,12.33
2022-12-20T17:37:21.484Z,11.80
2022-12-20T17:39:48.737Z,12.43
2022-12-20T17:42:16.853Z,12.97
2022-12-20T17:44:43.841Z,10.83
2022-12-20T17:47:11.800Z,12.37
2022-12-20T17:49:38.922Z,14.87
2022-12-20T17:52:05.670Z,13.03
2022-12-20T17:54:39.523Z,12.37
2022-12-20T17:57:16.479Z,12.07
2022-12-20T17:59:43.811Z,13.60
2022-12-20T18:02:20.739Z,14.13
2022-12-20T18:04:47.712Z,14.33
2022-12-20T18:07:14.549Z,18.40
2022-12-20T18:09:41.211Z,15.20
2022-12-20T18:12:10.059Z,14.63
2022-12-20T18:14:36.814Z,13.30
2022-12-20T18:17:03.667Z,15.53
2022-12-20T18:19:30.444Z,16.27
2022-12-20T18:21:58.132Z,16.03
2022-12-20T18:24:24.932Z,17.00
2022-12-20T18:26:51.844Z,18.53
2022-12-20T18:29:18.604Z,18.47
2022-12-20T18:31:45.448Z,16.07
2022-12-20T18:34:12.196Z,17.77
2022-12-20T18:36:39.069Z,17.97
2022-12-20T18:39:07.695Z,18.33
2022-12-20T18:41:35.228Z,19.23
2022-12-20T18:44:04.738Z,19.23
2022-12-20T18:46:31.824Z,22.43
2022-12-20T18:49:00.424Z,22.80
2022-12-20T18:51:33.131Z,21.77
2022-12-20T18:54:00.721Z,23.70
2022-12-20T18:56:30.892Z,23.80
2022-12-20T18:59:04.528Z,24.67
2022-12-20T19:01:37.913Z,26.67
2022-12-20T19:04:07.281Z,29.37
2022-12-20T19:06:34.469Z,27.80
2022-12-20T19:09:07.122Z,28.00
2022-12-20T19:11:34.068Z,28.97
2022-12-20T19:14:00.903Z,33.50
2022-12-20T19:16:30.465Z,29.23
2022-12-20T19:18:58.532Z,34.53
2022-12-20T19:21:27.914Z,32.40
2022-12-20T19:23:57.342Z,33.50
2022-12-20T19:26:29.925Z,34.63
2022-12-20T19:28:57.458Z,30.73
2022-12-20T19:31:28.462Z,33.57
2022-12-20T19:33:59.460Z,34.43
2022-12-20T19:36:43.694Z,39.43
2022-12-20T19:39:23.406Z,31.40
2022-12-20T19:42:21.400Z,38.03
2022-12-20T19:44:38.411Z,34.43
2022-12-20T19:47:05.294Z,35.73
2022-12-20T19:49:32.190Z,36.07
2022-12-20T19:51:58.876Z,37.97
2022-12-20T19:54:25.692Z,34.10
2022-12-20T19:56:52.373Z,34.30
2022-12-20T19:59:19.215Z,36.30
2022-12-20T20:01:46.110Z,34.77
2022-12-20T20:04:12.920Z,36.50
2022-12-20T20:06:39.596Z,38.23
2022-12-20T20:09:06.266Z,37.30
2022-12-20T20:11:33.035Z,42.57
2022-12-20T20:14:02.230Z,41.27
2022-12-20T20:16:29.070Z,45.87
2022-12-20T20:18:56.955Z,44.63
2022-12-20T20:21:23.927Z,44.07
2022-12-20T20:23:52.422Z,42.37
2022-12-20T20:26:23.777Z,43.67
2022-12-20T20:28:50.840Z,42.80
2022-12-20T20:31:18.783Z,44.37
2022-12-20T20:33:47.008Z,41.20
2022-12-20T20:36:16.000Z,49.73
2022-12-20T20:38:43.065Z,43.83
2022-12-20T20:41:10.633Z,46.17
2022-12-20T20:43:37.991Z,45.60
2022-12-20T20:46:07.674Z,45.43
2022-12-20T20:48:35.021Z,43.63
2022-12-20T20:51:01.816Z,54.40
2022-12-20T20:53:33.442Z,48.60
2022-12-20T20:56:04.855Z,53.47
2022-12-20T20:58:32.828Z,56.10
2022-12-20T21:01:02.433Z,57.40
2022-12-20T21:03:31.788Z,61.47
2022-12-20T21:08:45.574Z,67.73
2022-12-20T21:11:12.945Z,53.70
2022-12-20T21:13:39.889Z,54.30
2022-12-20T21:16:16.126Z,60.37
2022-12-20T21:18:42.930Z,54.53
2022-12-20T21:21:12.043Z,58.57
2022-12-20T21:23:43.142Z,60.50
2022-12-20T21:26:09.794Z,68.20
2022-12-20T21:28:36.516Z,70.27
2022-12-20T21:31:05.610Z,69.83
2022-12-20T21:33:32.541Z,66.27
2022-12-20T21:36:08.044Z,68.73
2022-12-20T21:38:35.211Z,70.87
2022-12-20T21:41:07.944Z,74.80
2022-12-20T21:43:35.035Z,73.27
2022-12-20T21:46:02.348Z,75.27
2022-12-20T21:48:29.785Z,80.40
2022-12-20T21:51:10.065Z,93.87
2022-12-20T21:53:42.704Z,69.87
2022-12-20T21:56:09.445Z,78.40
2022-12-20T21:58:36.292Z,75.80
2022-12-20T22:01:05.007Z,100.33
2022-12-20T22:03:31.949Z,86.37
2022-12-20T22:05:58.710Z,74.60
2022-12-20T22:08:27.481Z,84.33
2022-12-20T22:11:07.224Z,80.83
2022-12-20T22:13:41.146Z,83.10
2022-12-20T22:16:10.812Z,93.27
2022-12-20T22:18:38.775Z,92.20
2022-12-20T22:21:07.858Z,86.27
2022-12-20T22:23:34.820Z,92.33
2022-12-20T22:26:06.874Z,96.10
2022-12-20T22:28:33.971Z,87.50
2022-12-20T22:31:00.681Z,90.07
2022-12-20T22:33:27.418Z,99.33
2022-12-20T22:35:54.098Z,86.73
2022-12-20T22:38:20.771Z,98.03
2022-12-20T22:40:47.428Z,80.20
2022-12-20T22:43:14.082Z,90.47
2022-12-20T22:45:41.479Z,93.70
2022-12-20T22:48:14.269Z,88.30
2022-12-20T22:50:40.867Z,99.70
2022-12-20T22:53:07.495Z,94.70
2022-12-20T22:55:34.704Z,90.30
2022-12-20T22:58:01.321Z,94.20
2022-12-20T23:00:28.077Z,94.00
2022-12-20T23:02:54.805Z,92.60
2022-12-20T23:05:21.559Z,101.60
2022-12-20T23:07:48.265Z,104.17
2022-12-20T23:10:37.024Z,99.30
2022-12-20T23:13:22.408Z,111.07
2022-12-20T23:15:49.087Z,101.10
2022-12-20T23:18:15.705Z,104.27
2022-12-20T23:21:01.311Z,118.60
2022-12-20T23:23:27.946Z,115.17
2022-12-20T23:25:54.580Z,121.70
2022-12-20T23:28:21.217Z,118.80
2022-12-20T23:30:47.801Z,104.27
2022-12-20T23:33:14.441Z,121.47
2022-12-20T23:35:41.069Z,121.83
2022-12-20T23:38:07.761Z,119.53
2022-12-20T23:40:34.376Z,114.10
2022-12-20T23:43:01.053Z,115.03
2022-12-20T23:45:27.757Z,117.90
2022-12-20T23:47:54.394Z,121.50
2022-12-20T23:50:21.092Z,119.77
2022-12-20T23:52:47.740Z,121.77
2022-12-20T23:55:14.439Z,128.53
2022-12-20T23:57:41.098Z,121.23
